createdAt,value
2019-03-03T00:01:43.998Z,181.47
2019-03-03T00:04:13.506Z,190.33
2019-03-03T00:06:42.964Z,186.43
2019-03-03T00:09:12.290Z,183.27
2019-03-03T00:11:41.732Z,175.43
2019-03-03T00:14:11.146Z,182.57
2019-03-03T00:16:40.773Z,181.30
2019-03-03T00:19:10.239Z,175.73
2019-03-03T00:21:39.681Z,180.87
2019-03-03T00:24:09.124Z,167.33
2019-03-03T00:26:38.592Z,176.50
2019-03-03T00:29:08.158Z,169.37
2019-03-03T00:31:39.600Z,168.77
2019-03-03T00:34:08.955Z,176.33
2019-03-03T00:37:12.868Z,176.70
2019-03-03T00:40:03.987Z,168.63
2019-03-03T00:42:44.072Z,169.40
2019-03-03T00:45:31.642Z,169.43
2019-03-03T00:48:18.999Z,171.47
2019-03-03T00:50:55.724Z,172.90
2019-03-03T00:53:47.326Z,171.50
2019-03-03T00:56:41.636Z,162.97
2019-03-03T00:59:32.367Z,163.73
2019-03-03T01:02:26.968Z,158.63
2019-03-03T01:05:02.150Z,161.97
2019-03-03T01:07:49.382Z,164.50
2019-03-03T01:10:35.251Z,168.20
2019-03-03T01:13:21.697Z,164.23
2019-03-03T01:15:59.084Z,170.43
2019-03-03T01:18:50.695Z,172.00
2019-03-03T01:21:32.180Z,164.63
2019-03-03T01:24:23.560Z,170.20
2019-03-03T01:26:52.979Z,166.20
2019-03-03T01:29:22.315Z,176.27
2019-03-03T01:31:51.699Z,170.90
2019-03-03T01:34:21.105Z,169.83
2019-03-03T01:36:50.404Z,174.80
2019-03-03T01:39:38.811Z,190.97
2019-03-03T01:42:08.211Z,202.23
2019-03-03T01:44:37.565Z,196.60
2019-03-03T01:47:07.200Z,202.77
2019-03-03T01:49:36.660Z,193.33
2019-03-03T01:52:06.081Z,191.93
2019-03-03T01:54:35.443Z,190.83
2019-03-03T01:57:04.859Z,195.17
2019-03-03T01:59:34.494Z,194.53
2019-03-03T02:02:03.834Z,189.17
2019-03-03T02:04:33.175Z,189.50
2019-03-03T02:07:02.396Z,192.40
2019-03-03T02:09:32.099Z,173.20
2019-03-03T02:12:01.399Z,177.90
2019-03-03T02:14:30.746Z,183.83
2019-03-03T02:17:00.631Z,179.23
2019-03-03T02:19:30.024Z,178.17
2019-03-03T02:21:59.425Z,174.87
2019-03-03T02:24:28.770Z,170.97
2019-03-03T02:26:58.074Z,169.67
2019-03-03T02:29:27.415Z,175.03
2019-03-03T02:31:56.778Z,171.37
2019-03-03T02:34:25.987Z,175.00
2019-03-03T02:36:55.415Z,177.10
2019-03-03T02:39:24.944Z,171.63
2019-03-03T02:41:54.566Z,171.67
2019-03-03T02:44:23.911Z,176.43
2019-03-03T02:46:53.448Z,179.00
2019-03-03T02:49:22.780Z,171.07
2019-03-03T02:51:52.164Z,169.30
2019-03-03T02:54:21.605Z,163.47
2019-03-03T02:56:51.107Z,168.17
2019-03-03T02:59:20.708Z,158.70
2019-03-03T03:01:54.567Z,156.27
2019-03-03T03:04:23.928Z,163.83
2019-03-03T03:07:10.898Z,165.23
2019-03-03T03:10:14.656Z,158.90
2019-03-03T03:12:58.399Z,166.37
2019-03-03T03:15:49.900Z,159.43
2019-03-03T03:18:38.179Z,161.23
2019-03-03T03:21:21.421Z,157.33
2019-03-03T03:24:10.142Z,159.57
2019-03-03T03:27:07.212Z,169.57
2019-03-03T03:29:43.915Z,171.57
2019-03-03T03:32:25.259Z,170.83
2019-03-03T03:35:06.281Z,166.50
2019-03-03T03:37:57.434Z,165.00
2019-03-03T03:40:48.519Z,169.13
2019-03-03T03:43:45.814Z,164.37
2019-03-03T03:46:24.239Z,172.20
2019-03-03T03:49:00.716Z,168.17
2019-03-03T03:52:01.390Z,168.30
2019-03-03T03:54:55.794Z,160.43
2019-03-03T03:57:39.979Z,174.13
2019-03-03T04:00:17.639Z,174.63
2019-03-03T04:02:59.288Z,172.53
2019-03-03T04:05:46.376Z,179.20
2019-03-03T04:08:33.637Z,177.70
2019-03-03T04:11:24.801Z,178.07
2019-03-03T04:14:13.234Z,174.37
2019-03-03T04:16:52.319Z,171.77
2019-03-03T04:19:58.774Z,169.97
2019-03-03T04:22:46.302Z,163.60
2019-03-03T04:25:31.873Z,168.30
2019-03-03T04:28:35.685Z,157.23
2019-03-03T04:31:35.887Z,145.80
2019-03-03T04:34:23.245Z,145.33
2019-03-03T04:37:14.422Z,145.10
2019-03-03T04:39:48.843Z,140.23
2019-03-03T04:42:46.347Z,139.47
2019-03-03T04:45:21.020Z,139.50
2019-03-03T04:48:06.618Z,136.87
2019-03-03T04:50:44.583Z,133.17
2019-03-03T04:53:45.155Z,137.37
2019-03-03T04:56:39.448Z,129.73
2019-03-03T04:59:27.711Z,129.77
2019-03-03T05:02:22.210Z,131.33
2019-03-03T05:05:19.605Z,137.27
2019-03-03T05:08:12.242Z,136.10
2019-03-03T05:11:07.166Z,134.47
2019-03-03T05:13:42.559Z,133.63
2019-03-03T05:16:29.615Z,137.17
2019-03-03T05:19:09.137Z,137.83
2019-03-03T05:21:38.430Z,140.10
2019-03-03T05:24:10.050Z,145.47
2019-03-03T05:26:39.581Z,148.93
2019-03-03T05:29:08.952Z,151.60
2019-03-03T05:31:38.223Z,149.57
2019-03-03T05:34:07.624Z,141.57
2019-03-03T05:36:36.896Z,146.20
2019-03-03T05:39:07.356Z,144.33
2019-03-03T05:41:36.687Z,134.53
2019-03-03T05:44:06.045Z,137.80
2019-03-03T05:46:35.485Z,145.63
2019-03-03T05:49:04.878Z,145.77
2019-03-03T05:51:34.136Z,151.00
2019-03-03T05:54:03.487Z,158.27
2019-03-03T05:56:32.834Z,161.10
2019-03-03T05:59:02.216Z,165.43
2019-03-03T06:01:31.609Z,163.70
2019-03-03T06:04:00.993Z,178.77
2019-03-03T06:06:30.338Z,166.07
2019-03-03T06:08:59.697Z,157.13
2019-03-03T06:11:28.958Z,158.37
2019-03-03T06:13:58.495Z,158.20
2019-03-03T06:16:27.978Z,152.90
2019-03-03T06:18:57.371Z,142.00
2019-03-03T06:21:26.689Z,144.37
2019-03-03T06:23:56.163Z,141.77
2019-03-03T06:26:25.584Z,146.70
2019-03-03T06:28:55.119Z,152.37
2019-03-03T06:31:24.613Z,145.67
2019-03-03T06:33:54.159Z,146.43
2019-03-03T06:36:23.583Z,138.07
2019-03-03T06:38:52.902Z,136.73
2019-03-03T06:41:22.291Z,133.63
2019-03-03T06:43:51.799Z,142.63
2019-03-03T06:46:21.140Z,154.30
2019-03-03T06:48:50.556Z,145.47
2019-03-03T06:51:19.881Z,143.97
2019-03-03T06:53:49.261Z,141.30
2019-03-03T06:56:18.543Z,141.20
2019-03-03T06:58:47.770Z,140.30
2019-03-03T07:01:17.282Z,152.67
2019-03-03T07:03:46.593Z,145.90
2019-03-03T07:06:16.311Z,143.53
2019-03-03T07:08:45.711Z,134.80
2019-03-03T07:11:15.087Z,131.87
2019-03-03T07:13:44.584Z,124.23
2019-03-03T07:16:13.901Z,111.80
2019-03-03T07:18:43.265Z,103.17
2019-03-03T07:21:12.622Z,97.73
2019-03-03T07:23:42.001Z,89.70
2019-03-03T07:26:11.878Z,81.43
2019-03-03T07:28:41.118Z,85.30
2019-03-03T07:31:10.680Z,87.97
2019-03-03T07:33:46.150Z,90.93
2019-03-03T07:36:15.475Z,87.10
2019-03-03T07:38:44.779Z,90.83
2019-03-03T07:41:14.240Z,87.87
2019-03-03T07:43:43.623Z,81.13
2019-03-03T07:46:13.084Z,77.90
2019-03-03T07:48:42.715Z,75.17
2019-03-03T07:51:12.338Z,73.47
2019-03-03T07:53:41.708Z,70.77
2019-03-03T07:56:11.203Z,73.97
2019-03-03T07:58:40.757Z,79.37
2019-03-03T08:01:10.180Z,77.57
2019-03-03T08:03:39.519Z,83.80
2019-03-03T08:06:09.086Z,83.40
2019-03-03T08:08:38.531Z,80.20
2019-03-03T08:11:07.943Z,81.20
2019-03-03T08:13:37.211Z,85.80
2019-03-03T08:16:06.737Z,85.30
2019-03-03T08:18:36.073Z,88.13
2019-03-03T08:21:05.418Z,85.10
2019-03-03T08:23:34.893Z,88.90
2019-03-03T08:26:04.199Z,97.23
2019-03-03T08:28:33.903Z,94.00
2019-03-03T08:31:03.313Z,83.10
2019-03-03T08:33:32.656Z,85.20
2019-03-03T08:36:01.982Z,83.43
2019-03-03T08:38:31.256Z,82.87
2019-03-03T08:41:00.591Z,75.50
2019-03-03T08:43:55.089Z,74.50
2019-03-03T08:46:36.029Z,68.77
2019-03-03T08:49:16.365Z,73.53
2019-03-03T08:52:20.128Z,67.83
2019-03-03T08:55:23.722Z,67.27
2019-03-03T08:58:16.740Z,59.00
2019-03-03T09:01:13.483Z,59.10
2019-03-03T09:04:04.868Z,55.77
2019-03-03T09:06:49.562Z,51.43
2019-03-03T09:09:37.831Z,56.33
2019-03-03T09:12:44.661Z,50.87
2019-03-03T09:15:26.970Z,55.30
2019-03-03T09:18:06.752Z,52.43
2019-03-03T09:20:54.258Z,48.70
2019-03-03T09:23:41.519Z,50.13
2019-03-03T09:26:27.958Z,47.60
2019-03-03T09:29:04.635Z,51.90
2019-03-03T09:31:58.796Z,47.33
2019-03-03T09:34:50.041Z,47.40
2019-03-03T09:37:35.106Z,58.37
2019-03-03T09:40:27.347Z,30.17
2019-03-03T09:43:07.597Z,32.13
2019-03-03T09:45:56.182Z,32.60
2019-03-03T09:48:36.746Z,32.50
2019-03-03T09:51:28.466Z,32.60
2019-03-03T09:54:35.447Z,31.60
2019-03-03T09:57:17.966Z,28.77
2019-03-03T10:00:15.599Z,32.00
2019-03-03T10:03:03.897Z,31.43
2019-03-03T10:05:55.139Z,30.70
2019-03-03T10:08:40.001Z,32.37
2019-03-03T10:11:46.630Z,28.87
2019-03-03T10:14:36.894Z,29.23
2019-03-03T10:17:34.198Z,30.13
2019-03-03T10:20:12.956Z,27.83
2019-03-03T10:23:16.694Z,28.10
2019-03-03T10:26:08.401Z,28.73
2019-03-03T10:29:02.653Z,27.80
2019-03-03T10:31:50.113Z,28.60
2019-03-03T10:34:38.546Z,30.23
2019-03-03T10:37:14.589Z,29.40
2019-03-03T10:39:49.527Z,27.07
2019-03-03T10:42:43.914Z,24.97
2019-03-03T10:45:30.966Z,27.97
2019-03-03T10:48:09.356Z,24.23
2019-03-03T10:50:53.356Z,26.97
2019-03-03T10:53:40.338Z,28.63
2019-03-03T10:56:25.310Z,26.77
2019-03-03T10:59:12.804Z,26.70
2019-03-03T11:02:00.345Z,26.60
2019-03-03T11:05:07.186Z,27.07
2019-03-03T11:07:54.486Z,29.40
2019-03-03T11:10:45.661Z,24.20
2019-03-03T11:13:49.404Z,24.67
2019-03-03T11:16:31.871Z,24.90
2019-03-03T11:19:28.436Z,17.87
2019-03-03T11:22:16.721Z,19.83
2019-03-03T11:24:56.823Z,20.77
2019-03-03T11:27:45.153Z,18.37
2019-03-03T11:30:33.870Z,20.03
2019-03-03T11:33:22.409Z,20.43
2019-03-03T11:36:10.861Z,17.97
2019-03-03T11:38:48.956Z,19.37
2019-03-03T11:41:23.352Z,18.40
2019-03-03T11:44:12.204Z,19.87
2019-03-03T11:46:49.200Z,19.63
2019-03-03T11:49:36.226Z,18.83
2019-03-03T11:52:34.257Z,19.83
2019-03-03T11:55:11.681Z,23.33
2019-03-03T11:57:50.419Z,22.30
2019-03-03T12:00:44.936Z,18.90
2019-03-03T12:03:32.075Z,19.30
2019-03-03T12:06:19.285Z,17.13
2019-03-03T12:09:08.262Z,20.03
2019-03-03T12:12:11.921Z,17.17
2019-03-03T12:14:51.224Z,16.47
2019-03-03T12:17:26.973Z,16.37
2019-03-03T12:20:04.664Z,17.47
2019-03-03T12:23:05.033Z,18.40
2019-03-03T12:25:50.689Z,17.90
2019-03-03T12:28:43.906Z,20.07
2019-03-03T12:31:47.381Z,20.40
2019-03-03T12:34:44.877Z,16.00
2019-03-03T12:37:45.607Z,16.80
2019-03-03T12:40:40.325Z,17.93
2019-03-03T12:43:28.681Z,15.17
2019-03-03T12:46:26.268Z,19.97
2019-03-03T12:49:10.711Z,16.07
2019-03-03T12:52:05.590Z,15.07
2019-03-03T12:55:00.044Z,15.40
2019-03-03T12:57:39.015Z,15.27
2019-03-03T13:00:19.833Z,15.97
2019-03-03T13:03:07.162Z,15.50
2019-03-03T13:05:58.681Z,16.00
2019-03-03T13:09:05.486Z,14.83
2019-03-03T13:11:43.612Z,17.10
2019-03-03T13:17:01.443Z,17.77
2019-03-03T13:19:42.236Z,16.47
2019-03-03T13:22:36.728Z,17.13
2019-03-03T13:25:18.896Z,18.57
2019-03-03T13:28:00.729Z,16.33
2019-03-03T13:30:42.248Z,19.17
2019-03-03T13:33:29.494Z,16.30
2019-03-03T13:36:20.070Z,16.50
2019-03-03T13:38:59.515Z,18.30
2019-03-03T13:42:00.254Z,19.63
2019-03-03T13:44:31.960Z,14.93
2019-03-03T13:47:01.406Z,17.23
2019-03-03T13:49:30.863Z,16.30
2019-03-03T13:52:00.650Z,17.33
2019-03-03T13:54:30.110Z,16.63
2019-03-03T13:56:59.715Z,16.40
2019-03-03T13:59:29.083Z,16.27
2019-03-03T14:01:58.605Z,16.23
2019-03-03T14:04:28.255Z,18.73
2019-03-03T14:06:58.048Z,17.20
2019-03-03T14:09:27.385Z,17.90
2019-03-03T14:11:56.832Z,15.83
2019-03-03T14:14:26.760Z,17.37
2019-03-03T14:16:56.308Z,17.60
2019-03-03T14:19:25.755Z,16.50
2019-03-03T14:21:55.163Z,18.20
2019-03-03T14:24:24.597Z,16.27
2019-03-03T14:26:54.142Z,17.50
2019-03-03T14:29:23.699Z,15.80
2019-03-03T14:31:53.226Z,17.00
2019-03-03T14:34:22.615Z,16.87
2019-03-03T14:36:51.962Z,17.73
2019-03-03T14:39:21.627Z,19.53
2019-03-03T14:41:50.914Z,19.07
2019-03-03T14:44:20.283Z,18.23
2019-03-03T14:46:49.633Z,18.37
2019-03-03T14:49:19.063Z,17.67
2019-03-03T14:51:48.643Z,18.93
2019-03-03T14:54:17.901Z,17.03
2019-03-03T14:56:47.325Z,20.87
2019-03-03T14:59:16.735Z,19.63
2019-03-03T15:01:46.154Z,24.07
2019-03-03T15:04:15.581Z,16.00
2019-03-03T15:06:44.969Z,16.07
2019-03-03T15:09:21.687Z,18.33
2019-03-03T15:11:51.160Z,19.23
2019-03-03T15:14:20.517Z,17.07
2019-03-03T15:16:50.035Z,18.33
2019-03-03T15:19:19.985Z,20.20
2019-03-03T15:21:49.439Z,15.90
2019-03-03T15:24:18.911Z,17.73
2019-03-03T15:26:48.325Z,15.37
2019-03-03T15:29:17.579Z,20.07
2019-03-03T15:31:46.980Z,20.47
2019-03-03T15:34:16.505Z,21.13
2019-03-03T15:36:45.963Z,24.40
2019-03-03T15:39:15.438Z,29.10
2019-03-03T15:41:44.819Z,26.87
2019-03-03T15:44:14.165Z,20.37
2019-03-03T15:46:43.787Z,16.97
2019-03-03T15:49:13.422Z,23.87
2019-03-03T15:51:42.952Z,23.43
2019-03-03T15:54:12.524Z,23.17
2019-03-03T15:56:41.982Z,21.93
2019-03-03T15:59:11.509Z,20.20
2019-03-03T16:01:41.156Z,21.37
2019-03-03T16:04:10.513Z,24.03
2019-03-03T16:06:40.871Z,25.40
2019-03-03T16:09:15.997Z,26.50
2019-03-03T16:11:45.831Z,26.90
2019-03-03T16:14:15.233Z,24.37
2019-03-03T16:16:44.757Z,24.90
2019-03-03T16:19:14.181Z,28.00
2019-03-03T16:21:43.473Z,27.73
2019-03-03T16:24:12.938Z,28.77
2019-03-03T16:26:42.339Z,25.43
2019-03-03T16:29:11.787Z,29.10
2019-03-03T16:31:41.198Z,29.30
2019-03-03T16:34:10.639Z,28.17
2019-03-03T16:36:40.055Z,29.23
2019-03-03T16:39:09.637Z,27.43
2019-03-03T16:41:40.166Z,29.50
2019-03-03T16:44:09.699Z,32.87
2019-03-03T16:46:39.116Z,37.00
2019-03-03T16:49:08.457Z,29.97
2019-03-03T16:51:37.819Z,29.10
2019-03-03T16:54:07.338Z,29.13
2019-03-03T16:56:36.731Z,28.90
2019-03-03T16:59:06.263Z,28.20
2019-03-03T17:01:35.602Z,29.23
2019-03-03T17:04:05.147Z,36.70
2019-03-03T17:06:34.582Z,33.27
2019-03-03T17:09:05.219Z,31.00
2019-03-03T17:11:34.551Z,35.93
2019-03-03T17:14:03.969Z,38.80
2019-03-03T17:16:33.408Z,35.97
2019-03-03T17:19:03.027Z,36.33
2019-03-03T17:21:32.335Z,40.47
2019-03-03T17:24:01.682Z,42.50
2019-03-03T17:26:30.981Z,49.63
2019-03-03T17:29:00.310Z,54.03
2019-03-03T17:31:29.740Z,64.77
2019-03-03T17:34:01.237Z,78.70
2019-03-03T17:36:30.712Z,65.60
2019-03-03T17:39:00.524Z,80.10
2019-03-03T17:41:30.036Z,83.50
2019-03-03T17:43:59.598Z,64.37
2019-03-03T17:46:29.062Z,58.70
2019-03-03T17:48:58.637Z,52.63
2019-03-03T17:51:28.325Z,47.30
2019-03-03T17:54:12.924Z,44.40
2019-03-03T17:56:46.861Z,37.80
2019-03-03T17:59:16.291Z,40.40
2019-03-03T18:01:45.803Z,37.67
2019-03-03T18:04:16.554Z,40.23
2019-03-03T18:06:45.935Z,40.43
2019-03-03T18:09:16.614Z,45.33
2019-03-03T18:11:49.044Z,46.07
2019-03-03T18:14:20.391Z,44.80
2019-03-03T18:16:52.838Z,43.37
2019-03-03T18:19:22.279Z,46.33
2019-03-03T18:21:51.796Z,44.60
2019-03-03T18:24:21.683Z,43.83
2019-03-03T18:26:51.141Z,44.43
2019-03-03T18:29:21.884Z,43.20
2019-03-03T18:31:51.289Z,62.77
2019-03-03T18:34:20.846Z,76.30
2019-03-03T18:36:50.281Z,57.20
2019-03-03T18:39:21.235Z,68.33
2019-03-03T18:41:50.883Z,53.00
2019-03-03T18:44:20.247Z,55.20
2019-03-03T18:46:50.436Z,98.30
2019-03-03T18:49:19.913Z,123.33
2019-03-03T18:51:49.246Z,70.27
2019-03-03T18:54:18.734Z,54.20
2019-03-03T18:56:49.070Z,55.30
2019-03-03T18:59:18.493Z,47.80
2019-03-03T19:01:48.348Z,41.60
2019-03-03T19:04:17.900Z,44.10
2019-03-03T19:06:47.348Z,44.03
2019-03-03T19:09:21.920Z,42.50
2019-03-03T19:11:51.443Z,56.40
2019-03-03T19:14:28.027Z,52.60
2019-03-03T19:16:52.097Z,52.97
2019-03-03T19:19:21.628Z,49.10
2019-03-03T19:21:51.125Z,45.97
2019-03-03T19:24:23.122Z,45.33
2019-03-03T19:26:52.743Z,46.57
2019-03-03T19:29:22.279Z,45.57
2019-03-03T19:31:51.977Z,43.83
2019-03-03T19:34:21.366Z,44.03
2019-03-03T19:36:50.817Z,42.43
2019-03-03T19:39:20.640Z,44.40
2019-03-03T19:41:50.079Z,48.17
2019-03-03T19:44:19.823Z,46.10
2019-03-03T19:46:49.304Z,43.30
2019-03-03T19:49:18.715Z,45.67
2019-03-03T19:51:48.104Z,42.37
2019-03-03T19:54:17.472Z,42.57
2019-03-03T19:56:46.771Z,44.03
2019-03-03T19:59:16.162Z,41.43
2019-03-03T20:01:45.586Z,40.97
2019-03-03T20:04:14.890Z,41.17
2019-03-03T20:06:44.214Z,45.37
2019-03-03T20:09:15.405Z,44.50
2019-03-03T20:11:47.131Z,40.80
2019-03-03T20:14:15.892Z,41.63
2019-03-03T20:16:45.397Z,39.77
2019-03-03T20:19:14.961Z,45.17
2019-03-03T20:21:44.574Z,42.23
2019-03-03T20:24:14.104Z,42.03
2019-03-03T20:26:43.575Z,40.60
2019-03-03T20:29:13.084Z,50.70
2019-03-03T20:31:42.438Z,39.87
2019-03-03T20:34:12.151Z,44.13
2019-03-03T20:36:41.711Z,43.63
2019-03-03T20:39:11.770Z,44.70
2019-03-03T20:41:41.160Z,43.63
2019-03-03T20:44:10.674Z,50.73
2019-03-03T20:46:40.198Z,45.67
2019-03-03T20:49:09.676Z,46.23
2019-03-03T20:51:39.341Z,45.93
2019-03-03T20:54:09.094Z,41.17
2019-03-03T20:56:38.948Z,43.73
2019-03-03T20:59:08.469Z,42.97
2019-03-03T21:01:38.055Z,40.10
2019-03-03T21:04:07.803Z,42.53
2019-03-03T21:06:37.224Z,38.70
2019-03-03T21:09:08.494Z,45.47
2019-03-03T21:11:37.922Z,48.33
2019-03-03T21:14:07.438Z,45.73
2019-03-03T21:16:36.932Z,59.47
2019-03-03T21:19:07.387Z,57.37
2019-03-03T21:21:37.134Z,62.50
2019-03-03T21:24:06.685Z,65.23
2019-03-03T21:26:36.144Z,71.67
2019-03-03T21:29:05.785Z,70.10
2019-03-03T21:31:35.100Z,66.13
2019-03-03T21:34:04.574Z,75.80
2019-03-03T21:36:34.007Z,66.97
2019-03-03T21:39:03.692Z,71.80
2019-03-03T21:41:34.319Z,61.40
2019-03-03T21:44:03.563Z,59.27
2019-03-03T21:46:32.960Z,49.77
2019-03-03T21:49:02.465Z,47.23
2019-03-03T21:51:41.583Z,49.10
2019-03-03T21:54:11.075Z,42.83
2019-03-03T21:56:40.623Z,44.90
2019-03-03T21:59:11.708Z,40.67
2019-03-03T22:01:41.089Z,39.60
2019-03-03T22:04:10.464Z,39.17
2019-03-03T22:06:39.744Z,38.40
2019-03-03T22:09:09.912Z,38.97
2019-03-03T22:11:39.286Z,36.03
2019-03-03T22:14:09.694Z,38.17
2019-03-03T22:16:39.111Z,38.07
2019-03-03T22:19:09.322Z,34.83
2019-03-03T22:21:38.694Z,35.83
2019-03-03T22:24:08.071Z,33.67
2019-03-03T22:26:37.462Z,34.27
2019-03-03T22:29:06.883Z,36.70
2019-03-03T22:31:36.265Z,36.50
2019-03-03T22:34:05.614Z,37.07
2019-03-03T22:36:34.919Z,34.80
2019-03-03T22:39:05.786Z,37.00
2019-03-03T22:41:35.199Z,39.53
2019-03-03T22:44:04.783Z,36.47
2019-03-03T22:46:34.060Z,35.97
2019-03-03T22:49:03.612Z,35.40
2019-03-03T22:51:32.848Z,37.27
2019-03-03T22:54:02.423Z,32.47
2019-03-03T22:56:31.838Z,32.37
2019-03-03T22:59:01.225Z,30.77
2019-03-03T23:01:35.264Z,30.53
2019-03-03T23:04:24.874Z,30.17
2019-03-03T23:07:06.496Z,29.90
2019-03-03T23:10:08.461Z,32.37
2019-03-03T23:13:07.252Z,30.07
2019-03-03T23:15:57.916Z,29.17
2019-03-03T23:18:57.555Z,29.87
2019-03-03T23:22:06.721Z,32.03
2019-03-03T23:25:01.346Z,31.87
2019-03-03T23:27:30.712Z,32.37
2019-03-03T23:29:59.938Z,33.90
2019-03-03T23:32:29.168Z,32.57
2019-03-03T23:34:58.468Z,30.93
2019-03-03T23:37:27.887Z,31.23
2019-03-03T23:39:57.401Z,31.40
2019-03-03T23:42:26.865Z,30.77
2019-03-03T23:44:56.205Z,33.03
2019-03-03T23:47:25.599Z,33.20
2019-03-03T23:49:54.991Z,34.23
2019-03-03T23:52:24.291Z,38.50
2019-03-03T23:54:53.696Z,33.80
2019-03-03T23:57:23.531Z,33.07
2019-03-03T23:59:53.123Z,31.83
